Time;durP1;ratioP1;P1;durP2;ratioP2;P2;SDS_P1;SDS_P2;PMS_P1;PMS_P2;Temp;Humidity;BMP_temperature;BMP_pressure;BME280_temperature;BME280_humidity;BME280_pressure;Samples;Min_cycle;Max_cycle;Signal;HPM_P1;HPM_P2
2021/09/06 00:01:09;;;;;;;13.88;11.45;;;14.50;99.90;;;;;;5014973;28;20385;-78
2021/09/06 00:03:35;;;;;;;19.58;15.40;;;14.50;99.90;;;;;;5013631;28;20545;-78
2021/09/06 00:06:00;;;;;;;20.45;14.90;;;14.50;99.90;;;;;;4997932;28;20026;-78
2021/09/06 00:08:26;;;;;;;25.02;17.13;;;14.50;99.90;;;;;;5014537;28;20459;-78
2021/09/06 00:11:07;;;;;;;21.65;14.90;;;14.50;99.90;;;;;;5014061;28;20379;-76
2021/09/06 00:13:33;;;;;;;23.20;15.57;;;14.60;99.90;;;;;;5014263;28;20034;-76
2021/09/06 00:15:59;;;;;;;21.13;16.10;;;14.60;99.90;;;;;;5014797;28;20474;-79
2021/09/06 00:18:25;;;;;;;23.67;16.73;;;14.60;99.90;;;;;;5014664;28;20022;-77
2021/09/06 00:20:53;;;;;;;20.08;14.45;;;14.60;99.90;;;;;;5014089;28;20026;-77
2021/09/06 00:23:19;;;;;;;16.05;11.80;;;14.60;99.90;;;;;;5014924;28;20050;-78
2021/09/06 00:25:44;;;;;;;12.60;10.68;;;14.60;99.90;;;;;;5014101;28;20032;-78
2021/09/06 00:28:10;;;;;;;11.43;10.23;;;14.60;99.90;;;;;;5014349;28;20034;-78
2021/09/06 00:30:37;;;;;;;14.57;11.00;;;14.40;99.90;;;;;;5014535;28;20029;-78
2021/09/06 00:33:03;;;;;;;12.85;9.65;;;14.40;99.90;;;;;;5016178;28;20505;-78
2021/09/06 00:35:29;;;;;;;14.82;10.85;;;14.40;99.90;;;;;;5015522;28;20060;-78
2021/09/06 00:37:55;;;;;;;8.70;7.90;;;14.40;99.90;;;;;;5015914;28;20477;-78
2021/09/06 00:40:20;;;;;;;9.88;7.80;;;14.30;99.90;;;;;;5011611;28;20082;-78
2021/09/06 00:42:46;;;;;;;10.60;8.63;;;14.20;99.90;;;;;;5014297;28;20045;-77
2021/09/06 00:45:11;;;;;;;11.38;9.00;;;14.20;99.90;;;;;;5014295;28;20481;-78
2021/09/06 00:47:37;;;;;;;13.05;10.80;;;14.10;99.90;;;;;;5014019;28;20026;-78
2021/09/06 00:50:09;;;;;;;17.02;12.80;;;14.10;99.90;;;;;;5013744;28;20052;-77
2021/09/06 00:52:37;;;;;;;13.93;11.80;;;14.10;99.90;;;;;;5014486;28;20041;-78
2021/09/06 00:55:03;;;;;;;17.42;12.98;;;14.10;99.90;;;;;;5013401;28;20022;-78
2021/09/06 00:57:29;;;;;;;18.42;14.07;;;14.10;99.90;;;;;;5013337;28;20149;-78
2021/09/06 00:59:55;;;;;;;22.02;15.20;;;14.10;99.90;;;;;;5014110;28;20063;-78
2021/09/06 01:02:21;;;;;;;24.85;15.95;;;14.10;99.90;;;;;;5014769;28;20493;-78
2021/09/06 01:04:46;;;;;;;30.42;17.05;;;14.10;99.90;;;;;;5013613;28;20038;-78
2021/09/06 01:07:12;;;;;;;19.40;16.15;;;14.10;99.90;;;;;;5013331;28;20018;-77
2021/09/06 01:09:40;;;;;;;25.00;16.75;;;14.10;99.90;;;;;;5012692;28;20113;-77
2021/09/06 01:12:07;;;;;;;20.52;16.25;;;14.10;99.90;;;;;;5013727;28;20022;-77
2021/09/06 01:14:33;;;;;;;27.58;17.52;;;14.10;99.90;;;;;;5013606;28;20049;-79
2021/09/06 01:16:59;;;;;;;21.90;16.33;;;14.10;99.90;;;;;;5013439;28;20026;-78
2021/09/06 01:19:24;;;;;;;23.38;16.75;;;14.10;99.90;;;;;;5013696;28;20033;-77
2021/09/06 01:21:50;;;;;;;25.45;16.45;;;14.10;99.90;;;;;;5012915;28;20026;-77
2021/09/06 01:24:19;;;;;;;20.90;15.98;;;14.10;99.90;;;;;;5014373;28;20018;-77
2021/09/06 01:26:46;;;;;;;26.05;16.13;;;14.10;99.90;;;;;;5013706;28;20037;-78
2021/09/06 01:29:12;;;;;;;22.48;16.42;;;14.10;99.90;;;;;;5013475;28;20037;-78
2021/09/06 01:31:38;;;;;;;23.73;16.13;;;14.00;99.90;;;;;;5012839;28;20022;-78
2021/09/06 01:34:03;;;;;;;22.50;14.93;;;14.00;99.90;;;;;;5012746;28;20034;-78
2021/09/06 01:36:29;;;;;;;21.50;16.67;;;14.00;99.90;;;;;;5013322;28;20103;-78
2021/09/06 01:38:55;;;;;;;22.10;16.08;;;14.00;99.90;;;;;;5012206;28;20080;-77
2021/09/06 01:41:20;;;;;;;21.13;15.45;;;14.00;99.90;;;;;;5012316;28;20026;-77
2021/09/06 01:43:46;;;;;;;23.40;15.82;;;14.00;99.90;;;;;;5012230;28;20449;-77
2021/09/06 01:46:11;;;;;;;25.10;16.52;;;14.00;99.90;;;;;;5011904;28;20382;-78
2021/09/06 01:48:37;;;;;;;21.58;15.05;;;14.00;99.90;;;;;;5012245;28;20029;-78
2021/09/06 01:51:03;;;;;;;20.65;16.25;;;13.90;99.90;;;;;;5012362;28;20058;-78
2021/09/06 01:53:28;;;;;;;23.48;17.15;;;14.00;99.90;;;;;;5012130;28;20418;-77
2021/09/06 01:55:54;;;;;;;22.27;16.77;;;13.90;99.90;;;;;;5011998;28;20360;-79
2021/09/06 01:58:19;;;;;;;20.42;15.35;;;13.90;99.90;;;;;;5012934;28;20021;-79
2021/09/06 02:00:45;;;;;;;21.98;15.23;;;13.80;99.90;;;;;;5012708;28;20018;-77
2021/09/06 02:03:11;;;;;;;29.27;17.02;;;13.90;99.90;;;;;;5013148;28;20120;-79
2021/09/06 02:05:37;;;;;;;21.60;16.38;;;13.90;99.90;;;;;;5012391;28;20057;-77
2021/09/06 02:08:03;;;;;;;18.75;15.63;;;13.80;99.90;;;;;;5012473;28;20037;-79
2021/09/06 02:10:28;;;;;;;21.83;15.88;;;13.80;99.90;;;;;;5012631;28;20072;-78
2021/09/06 02:12:54;;;;;;;25.08;16.75;;;13.80;99.90;;;;;;5011865;28;20042;-79
2021/09/06 02:15:20;;;;;;;24.90;17.05;;;13.80;99.90;;;;;;5012617;28;20022;-79
2021/09/06 02:17:45;;;;;;;23.35;16.35;;;13.70;99.90;;;;;;5012115;28;20493;-78
2021/09/06 02:20:11;;;;;;;27.08;16.45;;;13.70;99.90;;;;;;5011655;28;20466;-78
2021/09/06 02:22:37;;;;;;;24.83;15.93;;;13.70;99.90;;;;;;5012015;28;20045;-78
2021/09/06 02:25:03;;;;;;;25.30;15.77;;;13.70;99.90;;;;;;5012363;28;20470;-77
2021/09/06 02:27:29;;;;;;;20.08;15.75;;;13.70;99.90;;;;;;5011161;28;20026;-79
2021/09/06 02:29:54;;;;;;;25.92;17.05;;;13.70;99.90;;;;;;5012130;28;20148;-78
2021/09/06 02:32:20;;;;;;;30.98;15.52;;;13.70;99.90;;;;;;5011959;28;20452;-78
2021/09/06 02:34:45;;;;;;;20.05;15.57;;;13.60;99.90;;;;;;5011532;28;20109;-77
2021/09/06 02:37:11;;;;;;;25.92;17.02;;;13.70;99.90;;;;;;5011996;28;20434;-78
2021/09/06 02:39:37;;;;;;;21.80;15.48;;;13.60;99.90;;;;;;5012225;28;20080;-78
2021/09/06 02:42:03;;;;;;;24.70;16.33;;;13.60;99.90;;;;;;5011858;28;20084;-77
2021/09/06 02:44:30;;;;;;;29.52;18.05;;;13.60;99.90;;;;;;5012091;28;20034;-77
2021/09/06 02:46:56;;;;;;;22.30;14.25;;;13.60;99.90;;;;;;5011870;28;20032;-79
2021/09/06 02:49:22;;;;;;;13.75;10.32;;;13.60;99.90;;;;;;5011578;28;20030;-78
2021/09/06 02:51:48;;;;;;;8.25;7.35;;;13.50;99.90;;;;;;5011336;28;20041;-76
2021/09/06 02:54:15;;;;;;;7.65;6.95;;;13.50;99.90;;;;;;5012134;28;20124;-78
2021/09/06 02:56:44;;;;;;;7.68;6.97;;;13.40;99.90;;;;;;5011095;28;20034;-78
2021/09/06 02:59:09;;;;;;;7.47;6.78;;;13.30;99.90;;;;;;5012193;28;20030;-77
2021/09/06 03:01:35;;;;;;;9.27;6.32;;;13.30;99.90;;;;;;5011897;28;20450;-78
2021/09/06 03:04:01;;;;;;;5.65;5.20;;;13.20;99.90;;;;;;5011622;28;20029;-77
2021/09/06 03:06:26;;;;;;;6.10;5.60;;;13.20;99.90;;;;;;5011601;28;20390;-78
2021/09/06 03:08:55;;;;;;;6.30;5.72;;;13.10;99.90;;;;;;5011906;28;20092;-77
2021/09/06 03:11:24;;;;;;;6.93;6.32;;;13.10;99.90;;;;;;5011828;28;20026;-78
2021/09/06 03:13:51;;;;;;;7.13;6.53;;;13.10;99.90;;;;;;5011280;28;20382;-77
2021/09/06 03:16:17;;;;;;;8.20;6.13;;;13.10;99.90;;;;;;5011605;28;20027;-78
2021/09/06 03:18:43;;;;;;;6.70;6.10;;;13.00;99.90;;;;;;5013748;28;20418;-78
2021/09/06 03:21:08;;;;;;;8.85;6.43;;;13.00;99.90;;;;;;5015824;28;20163;-77
2021/09/06 03:23:34;;;;;;;6.95;6.32;;;12.90;99.90;;;;;;5014993;28;20030;-78
2021/09/06 03:25:59;;;;;;;6.82;6.22;;;12.80;99.90;;;;;;5016253;28;20496;-77
2021/09/06 03:28:25;;;;;;;6.22;5.72;;;12.80;99.90;;;;;;5015666;28;20029;-76
2021/09/06 03:30:50;;;;;;;6.70;6.10;;;12.80;99.90;;;;;;5014701;28;20108;-76
2021/09/06 03:33:16;;;;;;;6.68;6.03;;;12.80;99.90;;;;;;5015257;28;20084;-76
2021/09/06 03:35:42;;;;;;;7.22;6.63;;;12.70;99.90;;;;;;5015175;28;20022;-76
2021/09/06 03:38:12;;;;;;;14.23;11.18;;;12.70;99.90;;;;;;5015112;28;20036;-76
2021/09/06 03:40:37;;;;;;;12.50;11.05;;;12.70;99.90;;;;;;5014810;28;20026;-77
2021/09/06 03:43:04;;;;;;;11.95;10.35;;;12.70;99.90;;;;;;5016519;28;20474;-79
2021/09/06 03:45:30;;;;;;;10.35;9.32;;;12.70;99.90;;;;;;5019029;28;20104;-76
2021/09/06 03:47:56;;;;;;;14.35;10.80;;;12.70;99.90;;;;;;5014528;28;20117;-77
2021/09/06 03:50:22;;;;;;;13.57;11.50;;;12.70;99.90;;;;;;5015065;28;20136;-77
2021/09/06 03:52:47;;;;;;;14.68;11.95;;;12.70;99.90;;;;;;5014318;28;20033;-76
2021/09/06 03:55:13;;;;;;;19.02;12.85;;;12.70;99.90;;;;;;5014750;28;20026;-76
2021/09/06 03:57:38;;;;;;;17.52;12.20;;;12.70;99.90;;;;;;5015548;28;20072;-76
2021/09/06 04:00:05;;;;;;;15.23;12.88;;;12.70;99.90;;;;;;5015410;28;20474;-76
2021/09/06 04:02:30;;;;;;;17.98;14.00;;;12.80;99.90;;;;;;5015567;28;20447;-77
2021/09/06 04:04:57;;;;;;;18.35;13.27;;;12.70;99.90;;;;;;5014692;28;20041;-75
2021/09/06 04:07:23;;;;;;;21.10;13.68;;;12.80;99.90;;;;;;5014489;28;20022;-76
2021/09/06 04:09:49;;;;;;;16.70;11.50;;;12.70;99.90;;;;;;5014806;28;20029;-76
2021/09/06 04:12:14;;;;;;;10.45;9.05;;;12.70;99.90;;;;;;5014841;28;20014;-76
2021/09/06 04:14:40;;;;;;;10.70;9.57;;;12.70;99.90;;;;;;5014560;28;20588;-76
2021/09/06 04:17:09;;;;;;;11.77;10.25;;;12.70;99.90;;;;;;5014744;28;20524;-75
2021/09/06 04:19:34;;;;;;;11.07;9.75;;;12.60;99.90;;;;;;5015266;28;20095;-76
2021/09/06 04:22:01;;;;;;;11.57;9.35;;;12.60;99.90;;;;;;5014826;28;20470;-76
2021/09/06 04:24:27;;;;;;;13.35;10.95;;;12.50;99.90;;;;;;5014630;28;20081;-76
2021/09/06 04:26:53;;;;;;;12.30;10.45;;;12.50;99.90;;;;;;5013481;28;20457;-76
2021/09/06 04:29:19;;;;;;;11.10;9.68;;;12.50;99.90;;;;;;5014208;28;20068;-76
2021/09/06 04:31:45;;;;;;;10.85;9.15;;;12.50;99.90;;;;;;5014129;28;20149;-77
2021/09/06 04:34:10;;;;;;;11.10;9.35;;;12.50;99.90;;;;;;5013639;28;20061;-76
2021/09/06 04:36:36;;;;;;;12.52;10.52;;;12.50;99.90;;;;;;5013985;28;20068;-76
2021/09/06 04:39:02;;;;;;;11.05;9.32;;;12.50;99.90;;;;;;5014056;28;20113;-76
2021/09/06 04:41:28;;;;;;;8.40;7.60;;;12.50;99.90;;;;;;5013708;28;20021;-76
2021/09/06 04:43:53;;;;;;;9.18;7.97;;;12.50;99.90;;;;;;5014007;28;20040;-76
2021/09/06 04:46:19;;;;;;;8.48;7.50;;;12.40;99.90;;;;;;5013830;28;20485;-76
2021/09/06 04:48:45;;;;;;;10.98;8.18;;;12.40;99.90;;;;;;5013104;28;20076;-76
2021/09/06 04:51:13;;;;;;;8.88;7.97;;;12.40;99.90;;;;;;5013195;28;20084;-75
2021/09/06 04:53:40;;;;;;;12.40;9.55;;;12.40;99.90;;;;;;5013727;28;20171;-76
2021/09/06 04:56:06;;;;;;;11.80;7.93;;;12.40;99.90;;;;;;5013309;28;20105;-76
2021/09/06 04:58:32;;;;;;;7.72;6.68;;;12.40;99.90;;;;;;5013340;28;20030;-76
2021/09/06 05:00:57;;;;;;;7.72;6.95;;;12.30;99.90;;;;;;5013206;28;20029;-75
2021/09/06 05:03:23;;;;;;;11.63;7.93;;;12.30;99.90;;;;;;5013086;28;20022;-75
2021/09/06 05:05:48;;;;;;;11.65;8.77;;;12.30;99.90;;;;;;5013237;28;20108;-75
2021/09/06 05:08:14;;;;;;;12.07;9.18;;;12.40;99.90;;;;;;5013437;28;20386;-75
2021/09/06 05:10:40;;;;;;;12.82;8.93;;;12.40;99.90;;;;;;5012837;28;20029;-76
2021/09/06 05:13:06;;;;;;;8.30;7.50;;;12.40;99.90;;;;;;5013468;28;20092;-76
2021/09/06 05:15:32;;;;;;;8.18;7.43;;;12.30;99.90;;;;;;5006538;28;20022;-77
2021/09/06 05:17:57;;;;;;;6.75;6.15;;;12.40;99.90;;;;;;4994998;28;20030;-76
2021/09/06 05:20:23;;;;;;;8.82;6.80;;;12.40;99.90;;;;;;5000101;28;20033;-76
2021/09/06 05:22:48;;;;;;;11.27;9.20;;;12.40;99.90;;;;;;4993278;28;20026;-77
2021/09/06 05:25:14;;;;;;;8.60;7.63;;;12.40;99.90;;;;;;4995840;28;20073;-77
2021/09/06 05:27:40;;;;;;;8.50;7.60;;;12.40;99.90;;;;;;4993770;28;20030;-75
2021/09/06 05:30:06;;;;;;;10.20;8.40;;;12.40;99.90;;;;;;4995246;28;20045;-76
2021/09/06 05:32:32;;;;;;;13.38;10.05;;;12.40;99.90;;;;;;4993744;28;20038;-76
2021/09/06 05:34:57;;;;;;;13.80;11.00;;;12.50;99.90;;;;;;4993866;28;20613;-77
2021/09/06 05:37:23;;;;;;;19.38;12.90;;;12.50;99.90;;;;;;4993432;28;20053;-75
2021/09/06 05:39:49;;;;;;;16.05;13.40;;;12.50;99.90;;;;;;4998048;28;20063;-76
2021/09/06 05:42:15;;;;;;;17.30;13.27;;;12.60;99.90;;;;;;4994775;28;20062;-75
2021/09/06 05:44:40;;;;;;;26.25;17.15;;;12.70;99.90;;;;;;4995177;28;20030;-76
2021/09/06 05:47:06;;;;;;;24.92;16.52;;;12.80;99.90;;;;;;4994399;28;20504;-77
2021/09/06 05:49:32;;;;;;;25.92;17.05;;;12.80;99.90;;;;;;5000809;28;20046;-75
2021/09/06 05:51:58;;;;;;;15.48;11.82;;;12.90;99.90;;;;;;4995730;28;20459;-76
2021/09/06 05:54:24;;;;;;;11.82;9.55;;;13.00;99.90;;;;;;4996993;28;20065;-76
2021/09/06 05:56:49;;;;;;;14.32;10.40;;;13.00;99.90;;;;;;4995853;28;20028;-77
2021/09/06 05:59:15;;;;;;;17.13;11.70;;;13.10;99.90;;;;;;4993103;28;20478;-76
2021/09/06 06:01:41;;;;;;;11.48;10.05;;;13.10;99.90;;;;;;4999062;28;20018;-77
2021/09/06 06:04:07;;;;;;;10.07;9.07;;;13.10;99.90;;;;;;4993116;28;20030;-77
2021/09/06 06:06:35;;;;;;;13.55;9.63;;;13.10;99.90;;;;;;5008564;28;20030;-77
2021/09/06 06:09:04;;;;;;;16.00;11.05;;;13.20;99.90;;;;;;5008059;28;20029;-75
2021/09/06 06:11:30;;;;;;;11.05;9.20;;;13.30;99.90;;;;;;5010166;28;20052;-76
2021/09/06 06:13:56;;;;;;;11.50;9.32;;;13.40;99.90;;;;;;5009874;28;20395;-77
2021/09/06 06:16:21;;;;;;;21.65;12.10;;;13.40;99.90;;;;;;5011217;28;20026;-77
2021/09/06 06:18:47;;;;;;;19.50;11.68;;;13.50;99.90;;;;;;5010500;28;20060;-76
2021/09/06 06:21:12;;;;;;;19.83;14.95;;;13.50;99.90;;;;;;5010287;28;20105;-76
2021/09/06 06:23:38;;;;;;;23.27;15.65;;;13.70;99.90;;;;;;5010697;28;20457;-77
2021/09/06 06:26:03;;;;;;;26.02;18.13;;;13.70;99.90;;;;;;5010491;28;20148;-76
2021/09/06 06:28:29;;;;;;;27.90;19.98;;;13.80;99.90;;;;;;5011070;28;20026;-77
2021/09/06 06:30:55;;;;;;;30.63;19.88;;;13.90;99.90;;;;;;5010565;28;20034;-76
2021/09/06 06:33:20;;;;;;;28.80;18.83;;;14.10;99.90;;;;;;5011018;28;20038;-77
2021/09/06 06:35:46;;;;;;;27.30;19.08;;;14.20;99.90;;;;;;5011280;28;20025;-76
2021/09/06 06:38:11;;;;;;;27.85;19.02;;;14.30;99.90;;;;;;5011658;28;20497;-76
2021/09/06 06:40:37;;;;;;;27.30;19.10;;;14.30;99.90;;;;;;5009304;28;20026;-77
2021/09/06 06:43:03;;;;;;;31.73;20.60;;;14.50;99.90;;;;;;5011445;28;20030;-75
2021/09/06 06:45:28;;;;;;;32.28;20.33;;;14.50;99.90;;;;;;5011823;28;20076;-77
2021/09/06 06:47:54;;;;;;;28.77;19.52;;;14.60;99.90;;;;;;5010783;28;20034;-76
2021/09/06 06:50:22;;;;;;;28.52;20.35;;;14.70;99.90;;;;;;5011482;28;20129;-78
2021/09/06 06:52:48;;;;;;;29.85;20.77;;;14.80;99.90;;;;;;5013924;28;20026;-76
2021/09/06 06:55:13;;;;;;;28.65;19.38;;;14.90;99.90;;;;;;5014980;28;20132;-79
2021/09/06 06:57:39;;;;;;;32.50;22.05;;;14.90;99.90;;;;;;5015009;28;20466;-77
2021/09/06 07:00:05;;;;;;;35.72;21.30;;;15.00;99.90;;;;;;5015745;28;20470;-78
2021/09/06 07:02:31;;;;;;;30.65;20.30;;;15.10;99.90;;;;;;5015053;28;20050;-80
2021/09/06 07:04:56;;;;;;;39.60;21.92;;;15.20;99.90;;;;;;5014306;28;20433;-78
2021/09/06 07:07:22;;;;;;;36.92;24.13;;;15.30;99.90;;;;;;5004590;28;20039;-77
2021/09/06 07:09:47;;;;;;;38.65;24.15;;;15.30;99.90;;;;;;4997446;28;20033;-77
2021/09/06 07:12:13;;;;;;;33.05;23.02;;;15.40;99.90;;;;;;5008695;28;20033;-76
2021/09/06 07:14:38;;;;;;;38.25;23.83;;;15.50;99.90;;;;;;5015646;28;20045;-77
2021/09/06 07:17:04;;;;;;;38.50;24.65;;;15.60;99.90;;;;;;5015529;28;20018;-76
2021/09/06 07:19:29;;;;;;;43.63;25.13;;;15.70;99.90;;;;;;5015244;28;20030;-77
2021/09/06 07:21:55;;;;;;;38.47;23.48;;;15.80;99.90;;;;;;5015369;28;20060;-78
2021/09/06 07:24:20;;;;;;;36.50;23.80;;;15.80;99.90;;;;;;5015257;28;20041;-78
2021/09/06 07:26:46;;;;;;;33.22;21.88;;;15.80;99.90;;;;;;5014759;28;20034;-78
2021/09/06 07:29:12;;;;;;;39.67;24.42;;;16.00;99.90;;;;;;5015777;28;20025;-77
2021/09/06 07:31:38;;;;;;;43.45;23.58;;;16.10;99.90;;;;;;5016329;28;20136;-78
2021/09/06 07:34:03;;;;;;;33.97;22.83;;;16.10;99.90;;;;;;5015101;28;20033;-80
2021/09/06 07:36:29;;;;;;;32.03;21.05;;;16.20;99.90;;;;;;5015951;28;20022;-77
2021/09/06 07:38:55;;;;;;;35.50;23.30;;;16.30;99.90;;;;;;5014581;28;20383;-79
2021/09/06 07:41:21;;;;;;;32.28;22.60;;;16.50;99.90;;;;;;5015227;28;20030;-79
2021/09/06 07:43:49;;;;;;;35.63;22.85;;;16.50;99.90;;;;;;5014941;28;20121;-81
2021/09/06 07:46:15;;;;;;;35.53;22.95;;;16.70;99.90;;;;;;5004798;28;20049;-77
2021/09/06 07:48:42;;;;;;;38.38;24.98;;;16.70;99.90;;;;;;4998224;28;20438;-80
2021/09/06 07:51:07;;;;;;;37.22;24.85;;;16.70;99.90;;;;;;5011709;28;20129;-79
2021/09/06 07:53:33;;;;;;;34.47;23.23;;;16.90;99.90;;;;;;5005860;28;20117;-81
2021/09/06 07:55:59;;;;;;;39.10;23.88;;;17.00;99.90;;;;;;5004691;28;20034;-78
2021/09/06 07:58:25;;;;;;;38.45;23.13;;;17.00;99.90;;;;;;5000178;28;20031;-78
2021/09/06 08:00:50;;;;;;;41.72;24.00;;;17.10;99.90;;;;;;4996183;28;20034;-79
2021/09/06 08:03:16;;;;;;;36.17;23.40;;;17.20;99.90;;;;;;5006423;28;20548;-80
2021/09/06 08:05:41;;;;;;;35.15;22.70;;;17.30;99.90;;;;;;5001783;28;20109;-79
2021/09/06 08:08:07;;;;;;;38.58;22.65;;;17.40;99.90;;;;;;4995771;28;20046;-79
2021/09/06 08:10:33;;;;;;;34.08;21.60;;;17.50;99.90;;;;;;5002536;28;20467;-79
2021/09/06 08:12:59;;;;;;;28.48;20.73;;;17.60;99.90;;;;;;5004122;28;20042;-79
2021/09/06 08:15:26;;;;;;;35.05;23.15;;;17.70;99.90;;;;;;5001537;28;20113;-78
2021/09/06 08:17:52;;;;;;;32.13;21.38;;;17.80;99.90;;;;;;5007841;28;20060;-78
2021/09/06 08:20:18;;;;;;;33.00;20.42;;;17.90;99.90;;;;;;5007580;28;20528;-79
2021/09/06 08:22:44;;;;;;;40.40;21.38;;;17.90;99.90;;;;;;5002568;28;20054;-78
2021/09/06 08:25:11;;;;;;;32.15;20.40;;;17.90;99.90;;;;;;4997477;28;20038;-79
2021/09/06 08:27:39;;;;;;;33.55;21.10;;;17.90;99.90;;;;;;4998141;28;20033;-79
2021/09/06 08:30:06;;;;;;;25.95;18.95;;;18.00;99.90;;;;;;5003275;28;20100;-79
2021/09/06 08:32:32;;;;;;;30.50;19.92;;;18.00;99.90;;;;;;5002627;28;20176;-79
2021/09/06 08:34:58;;;;;;;29.65;19.35;;;18.10;99.90;;;;;;4998245;28;20113;-78
2021/09/06 08:37:23;;;;;;;30.95;19.35;;;18.10;99.90;;;;;;5001556;28;20108;-78
2021/09/06 08:39:49;;;;;;;26.23;19.63;;;18.10;99.90;;;;;;4998308;28;20022;-78
2021/09/06 08:42:15;;;;;;;26.48;19.60;;;18.20;99.90;;;;;;5003520;28;20129;-78
2021/09/06 08:44:42;;;;;;;35.05;20.70;;;18.30;99.90;;;;;;5003007;28;20569;-78
2021/09/06 08:47:09;;;;;;;29.20;18.88;;;18.30;99.90;;;;;;4997588;28;20026;-79
2021/09/06 08:49:34;;;;;;;37.63;20.77;;;18.30;99.90;;;;;;5006541;28;20042;-78
2021/09/06 08:52:00;;;;;;;33.08;20.75;;;18.40;99.90;;;;;;4997177;28;20037;-80
2021/09/06 08:54:26;;;;;;;33.72;20.60;;;18.50;99.90;;;;;;4991515;28;20591;-78
2021/09/06 08:56:51;;;;;;;28.98;20.85;;;18.50;99.90;;;;;;4992913;28;20031;-80
2021/09/06 08:59:20;;;;;;;31.60;19.35;;;18.60;99.90;;;;;;4996120;28;20045;-79
2021/09/06 09:01:48;;;;;;;29.83;19.33;;;18.70;99.90;;;;;;4996897;28;20021;-79
2021/09/06 09:04:21;;;;;;;22.70;15.85;;;18.80;99.90;;;;;;4994271;28;20387;-80
2021/09/06 09:06:52;;;;;;;29.08;16.67;;;18.90;99.90;;;;;;5002040;28;20018;-80
2021/09/06 09:09:28;;;;;;;25.27;17.25;;;19.00;99.90;;;;;;5006027;28;20034;-81
2021/09/06 09:12:07;;;;;;;23.40;17.40;;;19.10;99.90;;;;;;4996231;28;20048;-80
2021/09/06 09:14:35;;;;;;;30.80;18.48;;;19.20;99.90;;;;;;4993334;28;20046;-80
2021/09/06 09:17:02;;;;;;;29.95;20.20;;;19.40;99.90;;;;;;4993317;28;20025;-79
2021/09/06 09:19:28;;;;;;;32.95;18.95;;;19.40;99.90;;;;;;4994125;28;20422;-80
2021/09/06 09:21:59;;;;;;;24.80;17.60;;;19.40;99.90;;;;;;4995300;28;20030;-79
2021/09/06 09:24:25;;;;;;;30.52;17.58;;;19.50;99.90;;;;;;4995853;28;20360;-80
2021/09/06 09:26:56;;;;;;;27.50;18.45;;;19.60;99.90;;;;;;4992204;28;20061;-79
2021/09/06 09:29:22;;;;;;;23.13;17.20;;;19.70;99.90;;;;;;4997870;28;20425;-78
2021/09/06 09:31:52;;;;;;;26.85;17.88;;;19.80;99.90;;;;;;4992060;28;20471;-78
2021/09/06 09:34:17;;;;;;;28.08;18.08;;;19.80;99.90;;;;;;4995082;28;20065;-79
2021/09/06 09:36:44;;;;;;;25.27;17.67;;;20.00;99.90;;;;;;4999160;28;20057;-79
2021/09/06 09:39:09;;;;;;;25.13;18.20;;;20.00;99.90;;;;;;4999522;28;20046;-79
2021/09/06 09:41:35;;;;;;;26.67;17.13;;;20.10;99.90;;;;;;4995607;28;20437;-79
2021/09/06 09:44:22;;;;;;;23.25;16.13;;;20.20;99.90;;;;;;4996082;28;20104;-79
2021/09/06 09:46:59;;;;;;;27.52;16.98;;;20.30;99.90;;;;;;4992262;28;20018;-78
2021/09/06 09:49:27;;;;;;;20.90;16.67;;;20.40;99.90;;;;;;4993769;28;20433;-79
2021/09/06 09:51:53;;;;;;;27.75;18.75;;;20.40;99.90;;;;;;5005762;28;20053;-78
2021/09/06 09:54:19;;;;;;;25.13;17.52;;;20.50;99.90;;;;;;4993491;28;20084;-80
2021/09/06 09:56:46;;;;;;;27.05;17.75;;;20.60;99.90;;;;;;5000594;28;20026;-78
2021/09/06 09:59:16;;;;;;;22.38;17.55;;;20.70;99.90;;;;;;4997650;28;20053;-79
2021/09/06 10:01:54;;;;;;;25.13;17.40;;;20.80;99.90;;;;;;4994827;28;20030;-79
2021/09/06 10:04:22;;;;;;;20.00;15.63;;;20.90;99.90;;;;;;4991950;28;20038;-79
2021/09/06 10:06:49;;;;;;;20.10;14.48;;;20.90;99.90;;;;;;4993466;28;20025;-79
2021/09/06 10:09:15;;;;;;;21.77;13.35;;;21.00;99.90;;;;;;4992993;28;20597;-79
2021/09/06 10:11:42;;;;;;;19.35;14.18;;;21.10;99.90;;;;;;4998915;28;20105;-80
2021/09/06 10:14:15;;;;;;;22.05;15.02;;;21.20;99.90;;;;;;5002504;28;20038;-79
2021/09/06 10:16:41;;;;;;;23.90;13.77;;;21.30;99.90;;;;;;4994341;28;20042;-80
2021/09/06 10:19:09;;;;;;;21.38;13.50;;;21.40;99.90;;;;;;4992102;28;20403;-79
2021/09/06 10:21:49;;;;;;;19.00;13.48;;;21.50;99.90;;;;;;4991601;28;20062;-79
2021/09/06 10:24:19;;;;;;;28.73;15.43;;;21.60;99.90;;;;;;5003602;28;20037;-79
2021/09/06 10:26:46;;;;;;;19.23;12.70;;;21.70;99.90;;;;;;4995511;28;20109;-79
2021/09/06 10:29:18;;;;;;;16.65;12.85;;;21.80;99.90;;;;;;4996931;28;20395;-79
2021/09/06 10:31:44;;;;;;;18.45;12.05;;;21.90;99.90;;;;;;4995944;28;20038;-79
2021/09/06 10:34:21;;;;;;;17.15;13.65;;;22.00;99.90;;;;;;4993667;28;20049;-80
2021/09/06 10:37:04;;;;;;;20.63;13.35;;;22.20;99.90;;;;;;4992495;28;20085;-80
2021/09/06 10:39:31;;;;;;;16.27;13.40;;;22.30;99.90;;;;;;4999269;28;20478;-79
2021/09/06 10:42:07;;;;;;;21.08;13.32;;;22.30;99.90;;;;;;4997677;28;20038;-79
2021/09/06 10:44:36;;;;;;;20.85;14.00;;;22.20;99.90;;;;;;4995813;28;20027;-80
2021/09/06 10:47:08;;;;;;;20.83;13.75;;;22.30;99.90;;;;;;4994079;28;20101;-79
2021/09/06 10:49:37;;;;;;;18.58;13.20;;;22.30;99.90;;;;;;5004169;28;20049;-79
2021/09/06 10:52:03;;;;;;;13.13;11.35;;;22.40;99.90;;;;;;4995028;28;20496;-79
2021/09/06 10:54:29;;;;;;;15.40;11.30;;;22.50;99.90;;;;;;4997282;28;20133;-75
2021/09/06 10:56:54;;;;;;;16.05;11.65;;;22.60;99.90;;;;;;4994767;28;20042;-76
2021/09/06 10:59:25;;;;;;;21.40;11.82;;;22.70;99.90;;;;;;4994321;28;20041;-75
2021/09/06 11:01:52;;;;;;;15.93;11.82;;;22.90;99.90;;;;;;4993666;28;20037;-76
2021/09/06 11:04:20;;;;;;;16.60;11.57;;;23.00;99.90;;;;;;5001255;28;20069;-75
2021/09/06 11:06:46;;;;;;;19.83;13.98;;;23.10;99.90;;;;;;5000119;28;20150;-75
2021/09/06 11:09:11;;;;;;;15.68;11.45;;;23.20;99.90;;;;;;4999967;28;20034;-75
2021/09/06 11:11:37;;;;;;;13.40;10.10;;;23.40;99.90;;;;;;5010414;28;20098;-75
2021/09/06 11:14:02;;;;;;;15.05;11.68;;;23.50;99.90;;;;;;5010853;28;20034;-75
2021/09/06 11:16:38;;;;;;;15.85;10.82;;;23.60;99.90;;;;;;4996945;28;20030;-74
2021/09/06 11:19:14;;;;;;;11.73;10.40;;;23.80;99.90;;;;;;4995494;28;20109;-76
2021/09/06 11:21:40;;;;;;;11.48;10.07;;;23.90;99.80;;;;;;4992379;28;20122;-76
2021/09/06 11:24:06;;;;;;;12.25;10.95;;;24.10;99.50;;;;;;4989885;28;20065;-75
2021/09/06 11:26:33;;;;;;;11.50;10.32;;;24.20;99.20;;;;;;4993149;28;20026;-75
2021/09/06 11:29:00;;;;;;;10.75;9.50;;;24.30;98.60;;;;;;4996199;28;20018;-75
2021/09/06 11:31:27;;;;;;;12.73;10.38;;;24.40;98.20;;;;;;4995141;28;20355;-77
2021/09/06 11:34:09;;;;;;;13.75;10.52;;;24.50;97.80;;;;;;4993528;28;20113;-77
2021/09/06 11:36:35;;;;;;;15.90;10.80;;;24.60;97.50;;;;;;5000505;28;20042;-78
2021/09/06 11:39:01;;;;;;;15.48;10.00;;;24.70;97.30;;;;;;4995854;28;20030;-78
2021/09/06 11:41:27;;;;;;;13.63;9.50;;;24.80;97.20;;;;;;4994589;28;20391;-78
2021/09/06 11:43:54;;;;;;;10.68;8.75;;;24.90;96.30;;;;;;4996098;28;20042;-77
2021/09/06 11:46:20;;;;;;;10.40;9.02;;;24.90;95.50;;;;;;4995230;28;20105;-77
2021/09/06 11:48:49;;;;;;;11.15;9.93;;;25.00;94.60;;;;;;4995231;28;20022;-77
2021/09/06 11:51:16;;;;;;;13.35;10.13;;;25.20;94.80;;;;;;4995510;28;20046;-77
2021/09/06 11:53:55;;;;;;;14.85;11.57;;;25.20;94.50;;;;;;4996089;28;20041;-77
2021/09/06 11:56:21;;;;;;;15.75;11.05;;;25.20;94.60;;;;;;5000100;28;20546;-76
2021/09/06 11:58:46;;;;;;;11.95;10.38;;;25.20;94.60;;;;;;5004046;28;20017;-76
2021/09/06 12:01:14;;;;;;;12.98;10.50;;;25.20;94.20;;;;;;4993884;28;20478;-77
2021/09/06 12:03:41;;;;;;;13.15;9.20;;;25.00;93.90;;;;;;4995575;28;20041;-77
2021/09/06 12:06:10;;;;;;;14.10;9.60;;;25.10;93.40;;;;;;4997938;28;20098;-77
2021/09/06 12:08:59;;;;;;;10.25;8.75;;;25.00;92.90;;;;;;4998666;28;20030;-77
2021/09/06 12:11:37;;;;;;;13.10;8.73;;;25.00;92.10;;;;;;5002242;28;20014;-78
2021/09/06 12:14:06;;;;;;;12.98;9.00;;;25.00;92.20;;;;;;5001702;28;20162;-77
2021/09/06 12:16:32;;;;;;;15.73;10.80;;;25.00;92.20;;;;;;4996527;28;20514;-77
2021/09/06 12:18:58;;;;;;;13.00;10.57;;;25.00;93.00;;;;;;4994550;28;20129;-77
2021/09/06 12:21:26;;;;;;;12.25;11.05;;;25.00;93.60;;;;;;4995438;28;20037;-77
2021/09/06 12:24:03;;;;;;;12.95;10.07;;;25.00;93.80;;;;;;4997481;28;20088;-77
2021/09/06 12:26:41;;;;;;;11.10;9.60;;;24.90;93.40;;;;;;4998654;28;20025;-77
2021/09/06 12:29:07;;;;;;;10.35;9.00;;;24.90;92.90;;;;;;5002235;28;20026;-78